Time;durP1;ratioP1;P1;durP2;ratioP2;P2;SDS_P1;SDS_P2;PMS_P1;PMS_P2;Temp;Humidity;BMP_temperature;BMP_pressure;BME280_temperature;BME280_humidity;BME280_pressure;Samples;Min_cycle;Max_cycle;Signal;HPM_P1;HPM_P2
2020/12/07 00:00:59;;;;;;;8.47;5.87;;;;;;;;;;5004544;28;20221;-74
2020/12/07 00:03:27;;;;;;;7.87;5.77;;;;;;;;;;5022219;28;20732;-73
2020/12/07 00:05:54;;;;;;;8.07;5.60;;;;;;;;;;5041136;28;20220;-74
2020/12/07 00:08:21;;;;;;;8.43;5.77;;;;;;;;;;5025766;28;20709;-75
2020/12/07 00:10:49;;;;;;;9.13;5.87;;;;;;;;;;5024963;28;20224;-74
2020/12/07 00:13:17;;;;;;;7.53;5.37;;;;;;;;;;5028019;28;20243;-75
2020/12/07 00:15:45;;;;;;;8.03;5.50;;;;;;;;;;5045149;28;20615;-75
2020/12/07 00:18:13;;;;;;;7.40;4.83;;;;;;;;;;5028512;28;20283;-74
2020/12/07 00:20:44;;;;;;;8.30;5.27;;;;;;;;;;5029178;28;20232;-75
2020/12/07 00:23:12;;;;;;;8.10;5.03;;;;;;;;;;5018328;28;20703;-74
2020/12/07 00:25:39;;;;;;;7.33;5.07;;;;;;;;;;5028306;28;20243;-73
2020/12/07 00:28:07;;;;;;;6.40;4.60;;;;;;;;;;5019823;28;20224;-74
2020/12/07 00:30:35;;;;;;;7.00;4.40;;;;;;;;;;5027372;28;20224;-74
2020/12/07 00:33:03;;;;;;;7.23;5.00;;;;;;;;;;5019391;28;20227;-74
2020/12/07 00:35:32;;;;;;;6.60;4.57;;;;;;;;;;5029156;28;20238;-73
2020/12/07 00:37:59;;;;;;;6.07;3.97;;;;;;;;;;5028606;28;20220;-74
2020/12/07 00:40:27;;;;;;;5.83;3.63;;;;;;;;;;5016399;28;20232;-74
2020/12/07 00:42:54;;;;;;;6.37;4.00;;;;;;;;;;5028076;28;20228;-75
2020/12/07 00:45:26;;;;;;;5.47;3.67;;;;;;;;;;5044880;28;20240;-74
2020/12/07 00:47:53;;;;;;;5.27;3.40;;;;;;;;;;5042375;28;20689;-74
2020/12/07 00:50:21;;;;;;;6.03;4.10;;;;;;;;;;5010582;28;20600;-75
2020/12/07 00:52:49;;;;;;;6.63;4.97;;;;;;;;;;5028162;28;20232;-75
2020/12/07 00:55:17;;;;;;;6.70;4.67;;;;;;;;;;5018353;28;20224;-76
2020/12/07 00:57:44;;;;;;;8.80;6.10;;;;;;;;;;5005634;28;20236;-75
2020/12/07 01:00:13;;;;;;;10.93;6.70;;;;;;;;;;5034940;28;20234;-75
2020/12/07 01:02:45;;;;;;;10.27;7.20;;;;;;;;;;5000531;28;20252;-74
2020/12/07 01:05:14;;;;;;;11.63;7.67;;;;;;;;;;4978382;28;20239;-75
2020/12/07 01:07:42;;;;;;;12.33;7.30;;;;;;;;;;5004420;28;20224;-75
2020/12/07 01:10:11;;;;;;;13.30;7.37;;;;;;;;;;4996922;28;20228;-75
2020/12/07 01:12:38;;;;;;;12.83;8.00;;;;;;;;;;5001315;28;20239;-75
2020/12/07 01:15:07;;;;;;;11.13;7.80;;;;;;;;;;5004419;28;20232;-75
2020/12/07 01:17:35;;;;;;;10.70;6.83;;;;;;;;;;4992243;28;20725;-76
2020/12/07 01:20:08;;;;;;;10.87;7.10;;;;;;;;;;5000102;28;20236;-75
2020/12/07 01:22:37;;;;;;;10.40;7.10;;;;;;;;;;4999782;28;20804;-75
2020/12/07 01:25:05;;;;;;;10.40;6.37;;;;;;;;;;5005760;28;20235;-75
2020/12/07 01:27:45;;;;;;;11.23;7.43;;;;;;;;;;4987412;28;20223;-75
2020/12/07 01:30:18;;;;;;;10.37;7.20;;;;;;;;;;4994873;28;20399;-76
2020/12/07 01:32:47;;;;;;;11.70;7.43;;;;;;;;;;4987986;28;20221;-76
2020/12/07 01:35:14;;;;;;;9.87;6.50;;;;;;;;;;5001980;28;20232;-76
2020/12/07 01:37:42;;;;;;;10.10;6.90;;;;;;;;;;4998053;28;20603;-76
2020/12/07 01:40:13;;;;;;;12.07;7.23;;;;;;;;;;4980596;28;20240;-74
2020/12/07 01:42:41;;;;;;;8.70;6.10;;;;;;;;;;4992492;28;20232;-74
2020/12/07 01:45:10;;;;;;;8.07;5.90;;;;;;;;;;4988315;28;20721;-74
2020/12/07 01:47:38;;;;;;;9.47;6.33;;;;;;;;;;4974871;28;20223;-74
2020/12/07 01:50:11;;;;;;;8.43;6.40;;;;;;;;;;4987829;28;20228;-73
2020/12/07 01:52:42;;;;;;;9.10;6.30;;;;;;;;;;5032669;28;20239;-76
2020/12/07 01:55:10;;;;;;;9.47;6.10;;;;;;;;;;5019318;28;20255;-74
2020/12/07 01:57:54;;;;;;;7.90;5.57;;;;;;;;;;5038641;28;20232;-74
2020/12/07 02:00:24;;;;;;;7.80;5.53;;;;;;;;;;5007012;28;20243;-74
2020/12/07 02:03:00;;;;;;;9.40;5.90;;;;;;;;;;4985169;28;20733;-74
2020/12/07 02:05:28;;;;;;;9.03;6.10;;;;;;;;;;4991598;28;20233;-73
2020/12/07 02:08:12;;;;;;;9.10;6.10;;;;;;;;;;5004895;28;20216;-74
2020/12/07 02:10:43;;;;;;;9.13;5.93;;;;;;;;;;4990908;28;20630;-75
2020/12/07 02:13:14;;;;;;;8.93;5.77;;;;;;;;;;4996041;28;20220;-73
2020/12/07 02:15:45;;;;;;;7.30;5.00;;;;;;;;;;5004667;28;20229;-73
2020/12/07 02:18:12;;;;;;;9.70;5.40;;;;;;;;;;4974844;28;20243;-74
2020/12/07 02:20:46;;;;;;;7.07;5.00;;;;;;;;;;5008142;28;20221;-75
2020/12/07 02:23:19;;;;;;;8.10;5.30;;;;;;;;;;4986234;28;20221;-76
2020/12/07 02:25:52;;;;;;;8.00;5.47;;;;;;;;;;4998096;28;20470;-74
2020/12/07 02:28:21;;;;;;;7.30;5.03;;;;;;;;;;4983834;28;20232;-75
2020/12/07 02:30:48;;;;;;;7.47;4.97;;;;;;;;;;4983941;28;20232;-75
2020/12/07 02:33:16;;;;;;;6.70;4.80;;;;;;;;;;5016101;28;20225;-75
2020/12/07 02:35:45;;;;;;;7.50;5.30;;;;;;;;;;4999330;28;20220;-75
2020/12/07 02:38:13;;;;;;;7.93;5.10;;;;;;;;;;5005097;28;20730;-75
2020/12/07 02:40:47;;;;;;;4.00;3.00;;;;;;;;;;4988817;28;20225;-75
2020/12/07 02:43:15;;;;;;;3.00;2.57;;;;;;;;;;5001001;28;20635;-75
2020/12/07 02:45:44;;;;;;;3.30;2.47;;;;;;;;;;5001010;28;20239;-75
2020/12/07 02:48:15;;;;;;;2.27;2.00;;;;;;;;;;5041114;28;20227;-75
2020/12/07 02:50:49;;;;;;;1.50;1.40;;;;;;;;;;5001618;28;20229;-76
2020/12/07 02:53:18;;;;;;;2.20;2.00;;;;;;;;;;4997519;28;20232;-74
2020/12/07 02:55:46;;;;;;;2.40;1.90;;;;;;;;;;4998702;28;20232;-74
2020/12/07 02:58:13;;;;;;;1.90;1.70;;;;;;;;;;5007152;28;20232;-74
2020/12/07 03:00:43;;;;;;;3.27;1.70;;;;;;;;;;5033311;28;20229;-74
2020/12/07 03:03:13;;;;;;;2.23;1.60;;;;;;;;;;5028608;28;20236;-74
2020/12/07 03:05:41;;;;;;;1.97;1.70;;;;;;;;;;4992825;28;20372;-74
2020/12/07 03:08:19;;;;;;;2.27;1.93;;;;;;;;;;5013005;28;20608;-74
2020/12/07 03:10:49;;;;;;;3.60;2.53;;;;;;;;;;4988746;28;20350;-74
2020/12/07 03:13:16;;;;;;;3.47;2.27;;;;;;;;;;5053911;28;20225;-74
2020/12/07 03:15:53;;;;;;;2.63;2.17;;;;;;;;;;5028702;28;20250;-74
2020/12/07 03:18:24;;;;;;;3.77;2.93;;;;;;;;;;5005142;28;20240;-74
2020/12/07 03:20:57;;;;;;;4.80;3.20;;;;;;;;;;4999807;28;20241;-74
2020/12/07 03:23:26;;;;;;;5.40;3.77;;;;;;;;;;4979719;28;20224;-75
2020/12/07 03:25:56;;;;;;;6.37;4.00;;;;;;;;;;5021469;28;20225;-74
2020/12/07 03:28:26;;;;;;;5.10;3.73;;;;;;;;;;4976352;28;20755;-75
2020/12/07 03:30:54;;;;;;;5.97;4.60;;;;;;;;;;5021978;28;20221;-75
2020/12/07 03:33:21;;;;;;;5.70;4.17;;;;;;;;;;5006145;28;20233;-75
2020/12/07 03:35:49;;;;;;;6.20;4.33;;;;;;;;;;5005293;28;20232;-75
2020/12/07 03:38:16;;;;;;;4.43;3.33;;;;;;;;;;4994133;28;20226;-75
2020/12/07 03:40:45;;;;;;;5.53;4.13;;;;;;;;;;4988386;28;20216;-75
2020/12/07 03:43:24;;;;;;;5.30;3.90;;;;;;;;;;4982465;28;20702;-75
2020/12/07 03:45:52;;;;;;;4.90;3.90;;;;;;;;;;5015548;28;20224;-75
2020/12/07 03:48:20;;;;;;;5.33;4.43;;;;;;;;;;5004342;28;20602;-75
2020/12/07 03:50:47;;;;;;;5.53;4.00;;;;;;;;;;4998854;28;20231;-75
2020/12/07 03:53:15;;;;;;;5.47;3.93;;;;;;;;;;5029389;28;20240;-75
2020/12/07 03:55:43;;;;;;;6.03;4.17;;;;;;;;;;5022989;28;20600;-75
2020/12/07 03:58:18;;;;;;;5.77;4.17;;;;;;;;;;5007722;28;20231;-75
2020/12/07 04:00:46;;;;;;;6.47;4.40;;;;;;;;;;5011939;28;20729;-75
2020/12/07 04:03:14;;;;;;;5.70;4.17;;;;;;;;;;5041962;28;20227;-75
2020/12/07 04:05:53;;;;;;;6.17;4.07;;;;;;;;;;5031188;28;20232;-75
2020/12/07 04:08:21;;;;;;;5.67;4.27;;;;;;;;;;5055766;28;20220;-75
2020/12/07 04:10:49;;;;;;;8.53;3.97;;;;;;;;;;5068211;28;20237;-75
2020/12/07 04:13:17;;;;;;;5.47;4.13;;;;;;;;;;5043221;28;20224;-75
2020/12/07 04:15:45;;;;;;;5.30;4.03;;;;;;;;;;5047090;28;20713;-75
2020/12/07 04:18:27;;;;;;;6.13;4.50;;;;;;;;;;5027267;28;20243;-75
2020/12/07 04:20:59;;;;;;;6.30;4.73;;;;;;;;;;5022931;28;20235;-75
2020/12/07 04:23:28;;;;;;;7.40;4.67;;;;;;;;;;5028261;28;20243;-75
2020/12/07 04:25:56;;;;;;;6.37;4.47;;;;;;;;;;5018266;28;20221;-75
2020/12/07 04:28:25;;;;;;;6.03;4.63;;;;;;;;;;5021835;28;20242;-75
2020/12/07 04:30:53;;;;;;;5.00;4.33;;;;;;;;;;5020967;28;20241;-74
2020/12/07 04:33:21;;;;;;;6.13;4.27;;;;;;;;;;5018597;28;20225;-75
2020/12/07 04:35:48;;;;;;;6.10;4.53;;;;;;;;;;5002184;28;20232;-75
2020/12/07 04:38:16;;;;;;;7.13;4.87;;;;;;;;;;5023245;28;20228;-75
2020/12/07 04:40:45;;;;;;;5.27;4.33;;;;;;;;;;4975474;28;20229;-75
2020/12/07 04:43:12;;;;;;;7.73;5.00;;;;;;;;;;4997622;28;20245;-75
2020/12/07 04:45:41;;;;;;;5.40;3.90;;;;;;;;;;4990222;28;20217;-75
2020/12/07 04:48:09;;;;;;;5.93;4.77;;;;;;;;;;5000066;28;20228;-75
2020/12/07 04:50:37;;;;;;;5.10;3.93;;;;;;;;;;5001396;28;20244;-75
2020/12/07 04:53:04;;;;;;;6.33;4.40;;;;;;;;;;4984143;28;20292;-75
2020/12/07 04:55:32;;;;;;;5.27;4.63;;;;;;;;;;5032496;28;20229;-75
2020/12/07 04:58:00;;;;;;;5.90;4.70;;;;;;;;;;5003483;28;20228;-75
2020/12/07 05:00:27;;;;;;;6.90;4.87;;;;;;;;;;5002380;28;20232;-75
2020/12/07 05:02:58;;;;;;;6.40;4.50;;;;;;;;;;5007565;28;20235;-76
2020/12/07 05:05:26;;;;;;;6.83;4.77;;;;;;;;;;5002136;28;20225;-75
2020/12/07 05:07:55;;;;;;;6.33;4.37;;;;;;;;;;4998935;28;20237;-76
2020/12/07 05:10:28;;;;;;;6.20;4.23;;;;;;;;;;4989329;28;20224;-76
2020/12/07 05:13:04;;;;;;;6.43;4.50;;;;;;;;;;5007086;28;20228;-76
2020/12/07 05:15:32;;;;;;;6.03;4.60;;;;;;;;;;4987777;28;20598;-76
2020/12/07 05:18:00;;;;;;;5.93;4.57;;;;;;;;;;5016860;28;20235;-75
2020/12/07 05:20:28;;;;;;;6.37;5.23;;;;;;;;;;5002529;28;20310;-75
2020/12/07 05:22:55;;;;;;;8.97;5.30;;;;;;;;;;5001036;28;20245;-75
2020/12/07 05:25:23;;;;;;;7.10;4.87;;;;;;;;;;5005239;28;20699;-75
2020/12/07 05:27:53;;;;;;;7.13;5.27;;;;;;;;;;5001452;28;20224;-76
2020/12/07 05:30:24;;;;;;;6.17;4.77;;;;;;;;;;5002631;28;20742;-75
2020/12/07 05:32:52;;;;;;;8.00;5.13;;;;;;;;;;4990625;28;20224;-76
2020/12/07 05:35:21;;;;;;;7.10;5.50;;;;;;;;;;5000212;28;20235;-76
2020/12/07 05:37:48;;;;;;;7.83;4.77;;;;;;;;;;4992272;28;20220;-76
2020/12/07 05:40:16;;;;;;;8.07;5.10;;;;;;;;;;4999873;28;20228;-75
2020/12/07 05:42:43;;;;;;;6.37;4.63;;;;;;;;;;5000177;28;20232;-76
2020/12/07 05:45:12;;;;;;;5.77;4.40;;;;;;;;;;4978111;28;20237;-76
2020/12/07 05:47:40;;;;;;;6.10;4.57;;;;;;;;;;4991140;28;20228;-76
2020/12/07 05:50:09;;;;;;;9.57;5.03;;;;;;;;;;5000887;28;20310;-76
2020/12/07 05:52:46;;;;;;;7.37;4.63;;;;;;;;;;4993954;28;20236;-76
2020/12/07 05:55:15;;;;;;;6.57;4.87;;;;;;;;;;4997109;28;20729;-76
2020/12/07 05:57:47;;;;;;;7.27;4.70;;;;;;;;;;5008084;28;20240;-76
2020/12/07 06:00:25;;;;;;;7.70;5.53;;;;;;;;;;5005118;28;20236;-76
2020/12/07 06:02:54;;;;;;;7.67;4.80;;;;;;;;;;5025291;28;20232;-76
2020/12/07 06:05:22;;;;;;;6.77;4.40;;;;;;;;;;5019089;28;20312;-76
2020/12/07 06:07:56;;;;;;;6.77;4.77;;;;;;;;;;5016977;28;20227;-76
2020/12/07 06:10:27;;;;;;;7.50;4.97;;;;;;;;;;5022954;28;20238;-76
2020/12/07 06:12:56;;;;;;;7.17;4.90;;;;;;;;;;5017378;28;20282;-76
2020/12/07 06:15:26;;;;;;;6.90;4.80;;;;;;;;;;5015913;28;20221;-75
2020/12/07 06:17:54;;;;;;;7.47;5.03;;;;;;;;;;4996637;28;20233;-75
2020/12/07 06:20:32;;;;;;;8.10;5.30;;;;;;;;;;5004566;28;20229;-75
2020/12/07 06:23:06;;;;;;;7.97;4.90;;;;;;;;;;5015295;28;20220;-75
2020/12/07 06:25:34;;;;;;;9.13;5.53;;;;;;;;;;5000608;28;20232;-75
2020/12/07 06:28:03;;;;;;;9.03;6.07;;;;;;;;;;5009195;28;20762;-75
2020/12/07 06:30:32;;;;;;;7.23;5.53;;;;;;;;;;5008962;28;20228;-75
2020/12/07 06:33:04;;;;;;;7.73;5.77;;;;;;;;;;5010637;28;20233;-75
2020/12/07 06:35:40;;;;;;;10.10;6.27;;;;;;;;;;5008793;28;20255;-75
2020/12/07 06:38:09;;;;;;;8.90;6.20;;;;;;;;;;5047295;28;20224;-75
2020/12/07 06:40:37;;;;;;;10.63;6.20;;;;;;;;;;5011543;28;20256;-75
2020/12/07 06:43:20;;;;;;;12.03;6.67;;;;;;;;;;4994163;28;20224;-76
2020/12/07 06:45:47;;;;;;;10.67;6.97;;;;;;;;;;4992398;28;20717;-75
2020/12/07 06:48:19;;;;;;;10.90;6.53;;;;;;;;;;5001403;28;20582;-75
2020/12/07 06:50:48;;;;;;;15.97;6.43;;;;;;;;;;5001710;28;20228;-76
2020/12/07 06:53:37;;;;;;;18.00;6.50;;;;;;;;;;4992684;28;20233;-76
2020/12/07 06:56:04;;;;;;;9.97;6.43;;;;;;;;;;5004527;28;20240;-76
2020/12/07 06:58:34;;;;;;;12.80;6.23;;;;;;;;;;4992402;28;20232;-76
2020/12/07 07:01:09;;;;;;;11.13;6.30;;;;;;;;;;5028276;28;20223;-76
2020/12/07 07:03:46;;;;;;;11.43;6.30;;;;;;;;;;5029452;28;20231;-76
2020/12/07 07:06:18;;;;;;;10.20;6.30;;;;;;;;;;5028832;28;20601;-75
2020/12/07 07:08:47;;;;;;;9.30;6.07;;;;;;;;;;5059156;28;20637;-75
2020/12/07 07:11:15;;;;;;;9.43;5.90;;;;;;;;;;5026144;28;20220;-76
2020/12/07 07:13:47;;;;;;;9.27;5.57;;;;;;;;;;5025686;28;20637;-76
2020/12/07 07:16:16;;;;;;;23.77;10.33;;;;;;;;;;5023568;28;20235;-76
2020/12/07 07:18:44;;;;;;;14.40;8.07;;;;;;;;;;5041354;28;20238;-77
2020/12/07 07:21:11;;;;;;;11.40;6.53;;;;;;;;;;5012595;28;20248;-77
2020/12/07 07:23:40;;;;;;;9.83;6.30;;;;;;;;;;5039993;28;20236;-76
2020/12/07 07:26:16;;;;;;;9.73;6.10;;;;;;;;;;4987050;28;20695;-76
2020/12/07 07:28:45;;;;;;;11.07;6.20;;;;;;;;;;5008865;28;20224;-76
2020/12/07 07:31:13;;;;;;;12.87;5.83;;;;;;;;;;5012729;28;20720;-76
2020/12/07 07:33:40;;;;;;;27.97;8.53;;;;;;;;;;5013139;28;20601;-76
2020/12/07 07:36:08;;;;;;;10.50;5.93;;;;;;;;;;5022668;28;20227;-76
2020/12/07 07:38:37;;;;;;;10.97;6.67;;;;;;;;;;5040191;28;20224;-76
2020/12/07 07:41:04;;;;;;;10.60;6.90;;;;;;;;;;5022757;28;20239;-76
2020/12/07 07:43:33;;;;;;;10.63;6.33;;;;;;;;;;5014952;28;20232;-76
2020/12/07 07:46:01;;;;;;;13.90;6.70;;;;;;;;;;5007163;28;20236;-76
2020/12/07 07:48:36;;;;;;;13.37;7.33;;;;;;;;;;5009830;28;20242;-76
2020/12/07 07:51:31;;;;;;;9.97;6.13;;;;;;;;;;5057412;28;20235;-76
2020/12/07 07:54:33;;;;;;;9.77;5.83;;;;;;;;;;5025651;28;20227;-76
2020/12/07 08:16:58;;;;;;;6.80;5.07;;;;;;;;;;5027219;28;20224;-77
2020/12/07 08:19:29;;;;;;;7.90;5.27;;;;;;;;;;5006661;28;20235;-76
2020/12/07 08:22:11;;;;;;;7.83;5.03;;;;;;;;;;5007409;28;20228;-78
2020/12/07 08:24:50;;;;;;;9.07;5.37;;;;;;;;;;5046389;28;20243;-77
2020/12/07 08:27:17;;;;;;;8.90;5.43;;;;;;;;;;5018414;28;20251;-77
2020/12/07 08:29:45;;;;;;;9.50;5.10;;;;;;;;;;5059906;28;20227;-76
2020/12/07 08:32:23;;;;;;;11.77;5.57;;;;;;;;;;5006692;28;20235;-77
2020/12/07 08:34:51;;;;;;;9.87;5.23;;;;;;;;;;5020319;28;20225;-76
2020/12/07 08:37:19;;;;;;;10.50;5.50;;;;;;;;;;5010071;28;20228;-76
2020/12/07 08:39:47;;;;;;;10.67;6.00;;;;;;;;;;5041298;28;20244;-75
2020/12/07 08:42:14;;;;;;;15.23;6.30;;;;;;;;;;5003775;28;20244;-76
2020/12/07 08:44:43;;;;;;;11.30;6.80;;;;;;;;;;5007587;28;20234;-75
2020/12/07 08:47:11;;;;;;;13.20;6.47;;;;;;;;;;5026683;28;20293;-76
2020/12/07 08:49:39;;;;;;;10.37;6.03;;;;;;;;;;5030927;28;20224;-76
2020/12/07 08:52:07;;;;;;;8.97;5.97;;;;;;;;;;5025458;28;20625;-76
2020/12/07 08:54:35;;;;;;;11.80;7.10;;;;;;;;;;5005130;28;20238;-78
2020/12/07 08:57:02;;;;;;;9.67;5.90;;;;;;;;;;5022161;28;20232;-77
2020/12/07 08:59:30;;;;;;;11.37;7.17;;;;;;;;;;5055055;28;20225;-78
2020/12/07 09:01:57;;;;;;;10.70;6.63;;;;;;;;;;5031038;28;20231;-78
2020/12/07 09:04:25;;;;;;;12.77;6.33;;;;;;;;;;5041102;28;20660;-78
2020/12/07 09:06:58;;;;;;;14.03;6.93;;;;;;;;;;5036935;28;20427;-78
2020/12/07 09:09:26;;;;;;;11.37;6.80;;;;;;;;;;5052759;28;20248;-80
2020/12/07 09:11:53;;;;;;;11.63;6.47;;;;;;;;;;5033232;28;20224;-78
2020/12/07 09:14:21;;;;;;;10.60;6.20;;;;;;;;;;5039723;28;20232;-77
2020/12/07 09:16:48;;;;;;;13.70;6.97;;;;;;;;;;5046103;28;20254;-76
2020/12/07 09:19:16;;;;;;;10.23;7.00;;;;;;;;;;5023484;28;20228;-78
2020/12/07 09:21:43;;;;;;;11.63;7.03;;;;;;;;;;4998908;28;20707;-78
2020/12/07 09:24:14;;;;;;;13.70;7.30;;;;;;;;;;5008510;28;20236;-77
2020/12/07 09:26:42;;;;;;;12.57;8.23;;;;;;;;;;5036412;28;20225;-78
2020/12/07 09:29:09;;;;;;;12.87;7.63;;;;;;;;;;5022688;28;20232;-78
2020/12/07 09:31:38;;;;;;;12.93;7.93;;;;;;;;;;5007468;28;20244;-77
2020/12/07 09:34:06;;;;;;;10.93;7.03;;;;;;;;;;5004829;28;21117;-78
2020/12/07 09:36:33;;;;;;;12.90;8.03;;;;;;;;;;5026505;28;20228;-77
2020/12/07 09:39:01;;;;;;;12.50;7.83;;;;;;;;;;5011706;28;20219;-78
2020/12/07 09:41:29;;;;;;;12.53;8.53;;;;;;;;;;5018988;28;20752;-78
2020/12/07 09:43:57;;;;;;;13.97;8.03;;;;;;;;;;5025337;28;20239;-78
2020/12/07 09:46:24;;;;;;;11.83;7.73;;;;;;;;;;5028380;28;20232;-77
2020/12/07 09:48:52;;;;;;;13.87;7.90;;;;;;;;;;5009186;28;20231;-77
2020/12/07 09:51:19;;;;;;;13.77;7.60;;;;;;;;;;5023877;28;20232;-77
2020/12/07 09:53:47;;;;;;;20.37;8.80;;;;;;;;;;5060772;28;20232;-77
2020/12/07 09:56:14;;;;;;;14.03;7.80;;;;;;;;;;5002867;28;20243;-78
2020/12/07 09:58:43;;;;;;;14.57;7.83;;;;;;;;;;5009785;28;20220;-78
2020/12/07 10:01:10;;;;;;;12.33;7.53;;;;;;;;;;5013579;28;20717;-77
2020/12/07 10:03:38;;;;;;;15.63;7.83;;;;;;;;;;5024188;28;20229;-78
2020/12/07 10:06:05;;;;;;;13.30;7.93;;;;;;;;;;5042971;28;20279;-78
2020/12/07 10:08:33;;;;;;;12.83;7.27;;;;;;;;;;5021361;28;20228;-79
2020/12/07 10:11:01;;;;;;;12.07;7.30;;;;;;;;;;5024889;28;20232;-79
2020/12/07 10:13:28;;;;;;;14.83;7.93;;;;;;;;;;5021481;28;20247;-79
2020/12/07 10:15:57;;;;;;;16.60;7.60;;;;;;;;;;5021429;28;20231;-78
2020/12/07 10:18:24;;;;;;;12.60;7.90;;;;;;;;;;5021356;28;21076;-79
2020/12/07 10:20:51;;;;;;;12.93;8.10;;;;;;;;;;4996982;28;20236;-79
2020/12/07 10:23:19;;;;;;;14.47;8.77;;;;;;;;;;5006600;28;20233;-79
2020/12/07 10:25:50;;;;;;;17.17;8.30;;;;;;;;;;5050534;28;20254;-79
2020/12/07 10:28:27;;;;;;;14.77;9.37;;;;;;;;;;5007948;28;20598;-80
2020/12/07 10:30:55;;;;;;;15.70;8.63;;;;;;;;;;5021770;28;20228;-79
2020/12/07 10:33:23;;;;;;;23.73;9.20;;;;;;;;;;5023250;28;20235;-79
2020/12/07 10:35:51;;;;;;;16.60;8.23;;;;;;;;;;5039422;28;20235;-79
2020/12/07 10:38:19;;;;;;;15.23;8.23;;;;;;;;;;4981966;28;20610;-79
2020/12/07 10:40:47;;;;;;;13.43;8.57;;;;;;;;;;5007160;28;20263;-78
2020/12/07 10:43:14;;;;;;;16.53;8.67;;;;;;;;;;4999276;28;20236;-78
2020/12/07 10:45:42;;;;;;;15.33;8.60;;;;;;;;;;5027394;28;20243;-78
2020/12/07 10:48:09;;;;;;;18.50;8.97;;;;;;;;;;5024764;28;20709;-79
2020/12/07 10:50:38;;;;;;;15.63;8.43;;;;;;;;;;5031259;28;20603;-78
2020/12/07 10:53:05;;;;;;;13.53;9.03;;;;;;;;;;5018861;28;20232;-78
2020/12/07 10:55:33;;;;;;;16.17;8.80;;;;;;;;;;5011924;28;20232;-78
2020/12/07 10:58:00;;;;;;;17.40;9.57;;;;;;;;;;4998574;28;20219;-78
2020/12/07 11:00:28;;;;;;;17.40;10.23;;;;;;;;;;5022085;28;20228;-77
2020/12/07 11:02:55;;;;;;;18.20;10.10;;;;;;;;;;5016676;28;20235;-77
2020/12/07 11:05:23;;;;;;;15.37;9.80;;;;;;;;;;5018275;28;20220;-77
2020/12/07 11:07:53;;;;;;;20.63;10.73;;;;;;;;;;5015344;28;20629;-78
2020/12/07 11:10:21;;;;;;;19.37;11.07;;;;;;;;;;5013223;28;20259;-78
2020/12/07 11:12:55;;;;;;;17.97;11.13;;;;;;;;;;5018973;28;20232;-77
2020/12/07 11:15:22;;;;;;;17.13;10.80;;;;;;;;;;5034998;28;20216;-79
2020/12/07 11:17:50;;;;;;;21.43;11.37;;;;;;;;;;5060035;28;20217;-77
2020/12/07 11:20:17;;;;;;;20.53;10.93;;;;;;;;;;5027120;28;20232;-77
2020/12/07 11:22:45;;;;;;;26.03;10.93;;;;;;;;;;5033794;28;20229;-77
2020/12/07 11:25:13;;;;;;;25.57;12.17;;;;;;;;;;5043718;28;20234;-77
2020/12/07 11:27:41;;;;;;;18.50;11.23;;;;;;;;;;5052078;28;20238;-77
2020/12/07 11:30:09;;;;;;;25.80;11.80;;;;;;;;;;5044041;28;20232;-76
2020/12/07 11:32:36;;;;;;;24.70;10.67;;;;;;;;;;5026180;28;20231;-76
2020/12/07 11:35:04;;;;;;;19.27;11.17;;;;;;;;;;5021457;28;20220;-76
2020/12/07 11:37:32;;;;;;;19.60;12.63;;;;;;;;;;5026445;28;20578;-77
2020/12/07 11:40:08;;;;;;;16.80;10.90;;;;;;;;;;5053813;28;20705;-77
2020/12/07 11:42:43;;;;;;;18.40;11.80;;;;;;;;;;5021550;28;20231;-77
2020/12/07 11:45:11;;;;;;;16.73;10.43;;;;;;;;;;5039260;28;20224;-76
2020/12/07 11:47:38;;;;;;;22.43;10.73;;;;;;;;;;5005819;28;22685;-78
2020/12/07 11:50:06;;;;;;;17.87;10.33;;;;;;;;;;5034976;28;20229;-78
2020/12/07 11:52:34;;;;;;;16.33;10.03;;;;;;;;;;5020527;28;20616;-77
2020/12/07 11:55:01;;;;;;;17.33;9.13;;;;;;;;;;5017996;28;20235;-77
2020/12/07 11:57:29;;;;;;;21.30;10.30;;;;;;;;;;5006848;28;20228;-77
2020/12/07 11:59:57;;;;;;;17.30;8.67;;;;;;;;;;5026651;28;20220;-77
2020/12/07 12:02:24;;;;;;;15.03;8.93;;;;;;;;;;5023287;28;20231;-77
2020/12/07 12:04:52;;;;;;;11.13;7.30;;;;;;;;;;5020505;28;20597;-77
2020/12/07 12:07:20;;;;;;;12.40;7.67;;;;;;;;;;5008954;28;20238;-77
2020/12/07 12:09:47;;;;;;;12.23;7.73;;;;;;;;;;5020540;28;20240;-77
2020/12/07 12:12:15;;;;;;;9.43;7.13;;;;;;;;;;5022297;28;20235;-77
2020/12/07 12:14:43;;;;;;;13.50;8.33;;;;;;;;;;5022511;28;20616;-77
2020/12/07 12:17:11;;;;;;;10.93;7.50;;;;;;;;;;5049618;28;20235;-77
2020/12/07 12:19:38;;;;;;;11.97;7.70;;;;;;;;;;5001975;28;20609;-77
2020/12/07 12:22:06;;;;;;;8.50;5.47;;;;;;;;;;5015036;28;20749;-78
2020/12/07 12:24:33;;;;;;;8.23;5.77;;;;;;;;;;5034484;28;20531;-76
2020/12/07 12:27:01;;;;;;;9.97;6.13;;;;;;;;;;5016855;28;20756;-77
2020/12/07 12:29:28;;;;;;;8.07;5.27;;;;;;;;;;5005633;28;20748;-77
2020/12/07 12:31:56;;;;;;;7.50;5.17;;;;;;;;;;5021486;28;20232;-77
2020/12/07 12:34:24;;;;;;;6.83;4.70;;;;;;;;;;5005951;28;20224;-77
2020/12/07 12:36:52;;;;;;;8.83;5.40;;;;;;;;;;5023721;28;20235;-77
2020/12/07 12:39:21;;;;;;;9.00;5.10;;;;;;;;;;5017773;28;20442;-77
2020/12/07 12:41:49;;;;;;;6.93;5.23;;;;;;;;;;5019626;28;20601;-76
2020/12/07 12:44:18;;;;;;;9.23;5.20;;;;;;;;;;5017563;28;20224;-76
2020/12/07 12:46:45;;;;;;;7.53;5.50;;;;;;;;;;5033612;28;20224;-77
2020/12/07 12:49:13;;;;;;;8.13;5.20;;;;;;;;;;5002290;28;20235;-77
2020/12/07 12:51:45;;;;;;;6.03;4.90;;;;;;;;;;5025461;28;20228;-77
2020/12/07 12:54:13;;;;;;;8.00;5.23;;;;;;;;;;5023423;28;20228;-77
2020/12/07 12:56:40;;;;;;;7.30;4.90;;;;;;;;;;5020668;28;20600;-77
2020/12/07 12:59:08;;;;;;;7.40;5.50;;;;;;;;;;5027474;28;20228;-77
2020/12/07 13:01:44;;;;;;;7.87;5.80;;;;;;;;;;5000533;28;20236;-77
2020/12/07 13:04:12;;;;;;;6.83;5.13;;;;;;;;;;5021622;28;20227;-77
2020/12/07 13:06:40;;;;;;;6.10;4.63;;;;;;;;;;5021308;28;20223;-77
2020/12/07 13:09:08;;;;;;;6.43;4.17;;;;;;;;;;5026217;28;20223;-77
2020/12/07 13:11:35;;;;;;;9.30;4.93;;;;;;;;;;5021509;28;20236;-77
2020/12/07 13:14:03;;;;;;;9.20;5.07;;;;;;;;;;5023135;28;20237;-77
2020/12/07 13:16:38;;;;;;;6.03;4.70;;;;;;;;;;5006881;28;20336;-77
2020/12/07 13:19:06;;;;;;;6.00;4.53;;;;;;;;;;5024960;28;20212;-77
2020/12/07 13:21:37;;;;;;;7.97;5.17;;;;;;;;;;5002783;28;20235;-76
2020/12/07 13:24:10;;;;;;;9.20;4.90;;;;;;;;;;5018397;28;20235;-77
2020/12/07 13:26:46;;;;;;;7.60;5.30;;;;;;;;;;5018970;28;20224;-76
2020/12/07 13:29:13;;;;;;;6.50;4.73;;;;;;;;;;5025140;28;20239;-77
2020/12/07 13:31:41;;;;;;;7.00;4.67;;;;;;;;;;5021094;28;20721;-77
2020/12/07 13:34:09;;;;;;;6.37;4.40;;;;;;;;;;5017613;28;20236;-77
2020/12/07 13:36:36;;;;;;;6.47;4.20;;;;;;;;;;5021760;28;20220;-77
2020/12/07 13:39:04;;;;;;;5.33;3.67;;;;;;;;;;5018363;28;20227;-77
2020/12/07 13:41:32;;;;;;;5.90;3.63;;;;;;;;;;5017689;28;20752;-77
2020/12/07 13:44:00;;;;;;;6.73;4.53;;;;;;;;;;5004317;28;20232;-77
2020/12/07 13:46:28;;;;;;;5.93;4.20;;;;;;;;;;5023689;28;20235;-77
2020/12/07 13:48:55;;;;;;;5.60;4.30;;;;;;;;;;5021035;28;20224;-77
2020/12/07 13:51:29;;;;;;;5.70;4.17;;;;;;;;;;5020777;28;20247;-77
2020/12/07 13:53:57;;;;;;;7.27;4.47;;;;;;;;;;5014771;28;20229;-78
2020/12/07 13:56:26;;;;;;;6.17;4.60;;;;;;;;;;5016825;28;20274;-78
2020/12/07 13:58:54;;;;;;;6.50;4.63;;;;;;;;;;5000207;28;20232;-77
2020/12/07 14:01:24;;;;;;;8.07;4.90;;;;;;;;;;5034652;28;20611;-77
2020/12/07 14:03:56;;;;;;;6.87;4.93;;;;;;;;;;5012667;28;20912;-77
2020/12/07 14:06:25;;;;;;;5.37;4.43;;;;;;;;;;5017300;28;20238;-77
2020/12/07 14:08:53;;;;;;;7.33;4.93;;;;;;;;;;5053346;28;20227;-77
2020/12/07 14:11:20;;;;;;;8.63;4.70;;;;;;;;;;5035988;28;20236;-77
2020/12/07 14:13:48;;;;;;;8.00;4.67;;;;;;;;;;5019583;28;20259;-77
2020/12/07 14:16:19;;;;;;;10.33;6.17;;;;;;;;;;5016932;28;20722;-76
2020/12/07 14:19:05;;;;;;;11.27;6.77;;;;;;;;;;4997194;28;20243;-79
2020/12/07 14:21:51;;;;;;;21.37;10.67;;;;;;;;;;4983214;28;20232;-77
2020/12/07 14:24:24;;;;;;;18.90;10.90;;;;;;;;;;5016786;28;20235;-76
2020/12/07 14:27:02;;;;;;;21.17;11.43;;;;;;;;;;5009918;28;20233;-77
2020/12/07 14:30:06;;;;;;;21.90;12.83;;;;;;;;;;5020741;28;20720;-76
2020/12/07 14:40:52;;;;;;;21.90;11.70;;;;;;;;;;5021030;28;20660;-77
2020/12/07 14:43:20;;;;;;;18.17;10.70;;;;;;;;;;5013522;28;20235;-77
2020/12/07 14:45:56;;;;;;;19.67;11.37;;;;;;;;;;4992493;28;20736;-77
2020/12/07 14:48:24;;;;;;;20.73;12.60;;;;;;;;;;5023599;28;20854;-77
2020/12/07 14:50:55;;;;;;;20.23;11.00;;;;;;;;;;5022098;28;20716;-77
2020/12/07 14:53:25;;;;;;;24.03;12.17;;;;;;;;;;5020926;28;20235;-77
2020/12/07 14:55:58;;;;;;;19.23;10.80;;;;;;;;;;5041121;28;20219;-77
2020/12/07 14:59:16;;;;;;;21.03;11.50;;;;;;;;;;5028178;28;20228;-77
2020/12/07 15:07:00;;;;;;;20.33;10.90;;;;;;;;;;5006908;28;20235;-77
2020/12/07 15:10:23;;;;;;;20.53;11.53;;;;;;;;;;5007332;28;20229;-77
2020/12/07 15:15:20;;;;;;;18.57;10.17;;;;;;;;;;4952693;28;20234;-76
2020/12/07 15:17:48;;;;;;;22.10;10.73;;;;;;;;;;5016841;28;20315;-77
2020/12/07 15:20:16;;;;;;;22.63;11.23;;;;;;;;;;5001146;28;20741;-77
2020/12/07 15:22:44;;;;;;;20.53;10.60;;;;;;;;;;4988808;28;20240;-77
2020/12/07 15:25:11;;;;;;;21.70;9.93;;;;;;;;;;5004607;28;20592;-77
2020/12/07 15:27:39;;;;;;;17.53;10.30;;;;;;;;;;5025742;28;20598;-78